Airfield :
LOGIN :

Register | Disclaimer

   EN    FR    IT 

 










Legend :    VFR   Marginal VFR   IFR   Intensive IFR   Very Intensive IFR
Visi :
Ceiling :
>= 8 km
>= 3000ft
5 to 8 km
1000 to 3000 ft
1500m to 5 km
500 to 1000 ft
800 to 1500m
200 to 500 ft
< 800m
< 200 ft
Symbols :   Thunderstorms  Fog  Heavy snow  Heavy precipitations  Wind > 20 kt
SIGMETs :     Misc.  Thunderstorms  Icing  Turbulence  Mountain Waves  Volcanic Ashes







- Airport Elevation : 13 ft
- IATA code : LYX
- Download approach charts


EGMD - Lydd

CURRENT METAR :
  • 151150Z 16009KT 1500 BR OVC001 11/11 Q1022

EXPIRED METARs :
  • 151120Z 17008KT 140V200 1500 BR BKN001 12/11 Q1022
  • 151050Z 17008KT 1400 BR BKN002 OVC005 12/11 Q1022
  • 151020Z 16009KT 9000 BKN005 13/11 Q1022
  • 150950Z 17009KT 9999 BKN006 13/12 Q1022
  • 150920Z 16008KT 9999 BKN005 13/12 Q1022

TAF AMD TAF EGMD
Valid from the 15 at 12:00 until the 15 at 21:00 UTC


151134Z 1512/1521 16008KT 4000 BR BKN006
TEMPO 1512/1521 1200 BKN001
ATIS : +44 1797 322 422
No reported NOTAMs for that airfield.



MET'MAP, your aeronautical weather chart ! - Copyright ORBIFLY December 2007 - Disclaimer

ORBIFLY MET'MAP TEAM :

Programming & Development : Alexandra Zaïnal
Concept & Development : Baudouin d'Aumeries
Co-Development & Prog : Marc-Olivier Méhu
Technical & hardware support : Manuel Goepfert

Contact : metmap@orbifly.com




SOURCES & CREDITS :

   NOAA